Terminal Aerodrome Forecast
Issued by NWS

Home | Current Version | Previous Version | Text Only | Print | Product List | Glossary Off
Versions: 1 2 3 4 5 6 7 8 9 10 11 12 13 14 15 16 17

000
FTUS43 KOAX 232300 RRA
TAFCDR
TAF
KCDR 232354Z 2400/2424 14013G22KT P6SM SCT120
     FM240200 16022G31KT P6SM VCTS SCT080CB BKN120
     FM240800 21011KT P6SM SCT150
     FM241700 23011G19KT P6SM SCT120=

USA.gov is the U.S. government's official web portal to all federal, state and local government web resources and services.